Time;durP1;ratioP1;P1;durP2;ratioP2;P2;SDS_P1;SDS_P2;PMS_P1;PMS_P2;Temp;Humidity;BMP_temperature;BMP_pressure;BME280_temperature;BME280_humidity;BME280_pressure;Samples;Min_cycle;Max_cycle;Signal;HPM_P1;HPM_P2
2021/07/31 00:00:24;;;;;;;2.55;1.25;;;21.70;59.80;;;;;;4959005;28;20033;-81
2021/07/31 00:02:53;;;;;;;1.20;1.00;;;21.70;59.80;;;;;;4927681;28;20031;-81
2021/07/31 00:05:19;;;;;;;1.10;1.00;;;21.60;59.80;;;;;;4959920;28;20090;-81
2021/07/31 00:07:45;;;;;;;1.88;1.10;;;21.60;59.80;;;;;;4959226;28;20023;-81
2021/07/31 00:10:11;;;;;;;1.77;1.15;;;21.60;59.90;;;;;;4975304;28;20487;-81
2021/07/31 00:12:38;;;;;;;1.63;1.20;;;21.60;59.90;;;;;;4958968;28;20114;-81
2021/07/31 00:15:04;;;;;;;1.63;1.00;;;21.60;59.90;;;;;;4975500;28;20178;-81
2021/07/31 00:17:30;;;;;;;2.72;1.13;;;21.60;59.90;;;;;;4959410;28;20085;-81
2021/07/31 00:19:56;;;;;;;2.67;1.20;;;21.50;59.90;;;;;;4975251;28;20494;-82
2021/07/31 00:22:22;;;;;;;2.58;1.50;;;21.50;59.90;;;;;;4975193;28;20034;-81
2021/07/31 00:24:48;;;;;;;1.73;1.15;;;21.50;59.90;;;;;;4958986;28;20033;-82
2021/07/31 00:27:13;;;;;;;1.85;1.33;;;21.40;59.90;;;;;;4975083;28;20027;-81
2021/07/31 00:29:39;;;;;;;2.30;1.10;;;21.50;60.00;;;;;;4959005;28;20101;-81
2021/07/31 00:32:06;;;;;;;2.22;1.20;;;21.50;60.00;;;;;;4974974;28;20030;-81
2021/07/31 00:34:33;;;;;;;2.72;1.15;;;21.40;60.00;;;;;;4958976;28;20062;-81
2021/07/31 00:36:59;;;;;;;1.33;1.00;;;21.40;60.00;;;;;;4958866;28;20372;-82
2021/07/31 00:39:25;;;;;;;1.90;1.25;;;21.40;60.00;;;;;;4974726;28;20098;-81
2021/07/31 00:41:51;;;;;;;1.55;1.20;;;21.40;60.10;;;;;;4974575;28;20054;-81
2021/07/31 00:44:16;;;;;;;1.90;1.20;;;21.40;60.10;;;;;;4958664;28;20043;-81
2021/07/31 00:46:43;;;;;;;2.05;1.20;;;21.30;60.10;;;;;;4976302;28;20027;-81
2021/07/31 00:49:09;;;;;;;1.55;1.15;;;21.30;60.10;;;;;;4974419;28;20048;-82
2021/07/31 00:51:36;;;;;;;2.33;1.30;;;21.30;60.10;;;;;;4958481;28;20491;-82
2021/07/31 00:54:02;;;;;;;2.95;1.50;;;21.30;60.20;;;;;;4958281;28;20035;-81
2021/07/31 00:56:28;;;;;;;4.55;1.55;;;21.30;60.30;;;;;;4958605;28;20057;-81
2021/07/31 00:58:55;;;;;;;1.50;1.10;;;21.30;60.20;;;;;;4958164;28;20062;-81
2021/07/31 01:01:21;;;;;;;2.67;1.27;;;21.20;60.20;;;;;;4958272;28;20023;-83
2021/07/31 01:03:47;;;;;;;2.03;1.40;;;21.20;60.30;;;;;;4958944;28;20046;-82
2021/07/31 01:06:13;;;;;;;1.75;1.02;;;21.30;60.30;;;;;;4959101;28;20404;-82
2021/07/31 01:08:40;;;;;;;1.95;1.17;;;21.30;60.40;;;;;;4974367;28;20031;-82
2021/07/31 01:11:07;;;;;;;1.75;1.20;;;21.20;60.30;;;;;;4958182;28;20082;-81
2021/07/31 01:13:35;;;;;;;2.10;1.30;;;21.20;60.40;;;;;;4974956;28;20027;-81
2021/07/31 01:16:07;;;;;;;2.25;1.23;;;21.20;60.40;;;;;;4974031;28;20045;-81
2021/07/31 01:18:34;;;;;;;1.95;1.30;;;21.20;60.50;;;;;;4958364;28;20030;-83
2021/07/31 01:21:04;;;;;;;2.20;1.50;;;21.20;60.50;;;;;;4958582;28;20023;-82
2021/07/31 01:23:31;;;;;;;1.80;1.20;;;21.20;60.50;;;;;;4958152;28;20023;-81
2021/07/31 01:25:57;;;;;;;1.48;1.13;;;21.10;60.50;;;;;;4957339;28;20542;-81
2021/07/31 01:28:24;;;;;;;1.20;1.10;;;21.20;60.60;;;;;;4958805;28;20035;-82
2021/07/31 01:30:50;;;;;;;1.98;1.30;;;21.10;60.50;;;;;;4957917;28;20038;-82
2021/07/31 01:33:16;;;;;;;1.70;1.00;;;21.10;60.50;;;;;;4958314;28;20031;-82
2021/07/31 01:35:42;;;;;;;2.47;1.30;;;21.10;60.60;;;;;;4957951;28;20026;-82
2021/07/31 01:38:20;;;;;;;2.15;1.20;;;21.10;60.60;;;;;;4974722;28;20119;-82
2021/07/31 01:40:46;;;;;;;2.22;1.40;;;21.10;60.70;;;;;;4973855;28;20039;-82
2021/07/31 01:43:12;;;;;;;2.70;1.48;;;21.10;60.70;;;;;;4973724;28;20054;-81
2021/07/31 01:45:40;;;;;;;1.73;1.23;;;21.10;60.70;;;;;;4974556;28;20049;-82
2021/07/31 01:48:06;;;;;;;2.00;1.20;;;21.10;61.40;;;;;;4958335;28;20035;-82
2021/07/31 01:50:32;;;;;;;2.15;1.30;;;21.10;60.80;;;;;;4957912;28;20039;-82
2021/07/31 01:52:58;;;;;;;2.17;1.13;;;21.00;60.80;;;;;;4957998;28;20038;-80
2021/07/31 01:55:24;;;;;;;1.35;1.20;;;21.10;60.90;;;;;;4957480;28;20035;-81
2021/07/31 01:57:57;;;;;;;2.78;1.38;;;21.00;60.80;;;;;;4959431;28;20057;-81
2021/07/31 02:00:36;;;;;;;1.60;1.20;;;21.10;60.90;;;;;;4957933;28;20053;-82
2021/07/31 02:03:06;;;;;;;1.80;1.30;;;21.00;60.90;;;;;;4962855;28;20513;-82
2021/07/31 02:05:39;;;;;;;1.77;1.27;;;21.00;60.90;;;;;;4961352;28;20063;-81
2021/07/31 02:08:06;;;;;;;2.53;1.30;;;21.00;60.90;;;;;;4962007;28;20030;-81
2021/07/31 02:10:46;;;;;;;2.45;1.30;;;21.00;60.90;;;;;;4959844;28;20031;-81
2021/07/31 02:13:12;;;;;;;1.13;1.02;;;21.00;61.00;;;;;;4957353;28;20122;-81
2021/07/31 02:15:40;;;;;;;1.90;1.13;;;21.00;61.00;;;;;;4957383;28;20038;-81
2021/07/31 02:18:07;;;;;;;1.80;1.05;;;20.90;61.00;;;;;;4974190;28;20031;-81
2021/07/31 02:20:33;;;;;;;1.58;1.17;;;21.00;61.10;;;;;;4957624;28;20038;-81
2021/07/31 02:23:21;;;;;;;2.13;1.40;;;21.00;61.20;;;;;;4959969;28;20045;-81
2021/07/31 02:26:13;;;;;;;1.60;1.20;;;20.90;61.10;;;;;;4938631;28;20034;-82
2021/07/31 02:28:50;;;;;;;2.50;1.40;;;20.90;61.10;;;;;;4957873;28;20039;-82
2021/07/31 02:31:17;;;;;;;2.53;1.48;;;20.90;61.20;;;;;;4957101;28;20085;-81
2021/07/31 02:33:48;;;;;;;2.05;1.30;;;20.90;61.30;;;;;;4957415;28;20118;-81
2021/07/31 02:36:15;;;;;;;1.90;1.30;;;20.90;61.30;;;;;;4957158;28;20093;-82
2021/07/31 02:39:00;;;;;;;1.60;1.25;;;20.80;61.30;;;;;;4964113;28;20035;-82
2021/07/31 02:41:26;;;;;;;1.52;1.23;;;20.90;61.30;;;;;;4961307;28;20108;-83
2021/07/31 02:43:52;;;;;;;1.58;1.33;;;20.80;61.30;;;;;;4977175;28;20041;-81
2021/07/31 02:46:18;;;;;;;2.53;1.40;;;20.80;61.40;;;;;;4977616;28;20045;-81
2021/07/31 02:48:44;;;;;;;2.03;1.38;;;20.80;61.40;;;;;;4960930;28;20034;-84
2021/07/31 02:51:13;;;;;;;3.13;1.40;;;20.80;61.40;;;;;;4960979;28;20035;-84
2021/07/31 02:53:57;;;;;;;2.53;1.48;;;20.80;61.40;;;;;;4963379;28;20045;-81
2021/07/31 02:56:24;;;;;;;1.75;1.40;;;20.80;61.40;;;;;;4960771;28;20035;-81
2021/07/31 02:58:50;;;;;;;3.00;1.60;;;20.80;61.50;;;;;;4960786;28;20035;-83
2021/07/31 03:01:17;;;;;;;1.85;1.40;;;20.80;61.50;;;;;;4976802;28;20035;-81
2021/07/31 03:03:42;;;;;;;3.42;1.70;;;20.70;61.50;;;;;;4960490;28;20384;-81
2021/07/31 03:06:10;;;;;;;2.65;1.60;;;20.70;61.50;;;;;;4976808;28;20090;-80
2021/07/31 03:08:37;;;;;;;2.00;1.50;;;20.70;61.50;;;;;;4961317;28;20030;-81
2021/07/31 03:11:06;;;;;;;2.40;1.33;;;20.70;61.60;;;;;;4960578;28;20042;-81
2021/07/31 03:13:34;;;;;;;1.63;1.30;;;20.70;61.60;;;;;;4960214;28;20031;-81
2021/07/31 03:16:01;;;;;;;2.28;1.50;;;20.70;61.60;;;;;;4960926;28;20081;-82
2021/07/31 03:18:28;;;;;;;2.15;1.20;;;20.70;61.70;;;;;;4976436;28;20030;-81
2021/07/31 03:20:54;;;;;;;2.08;1.30;;;20.60;61.60;;;;;;4961166;28;20031;-81
2021/07/31 03:23:33;;;;;;;1.75;1.30;;;20.60;61.70;;;;;;4962163;28;20563;-81
2021/07/31 03:26:00;;;;;;;1.83;1.27;;;20.60;61.70;;;;;;4976305;28;20086;-80
2021/07/31 03:28:28;;;;;;;2.70;1.60;;;20.60;61.70;;;;;;4960028;28;20543;-81
2021/07/31 03:30:57;;;;;;;1.55;1.25;;;20.60;61.70;;;;;;4960451;28;20046;-81
2021/07/31 03:33:23;;;;;;;1.38;1.27;;;20.60;61.80;;;;;;4960219;28;20081;-81
2021/07/31 03:35:52;;;;;;;1.58;1.30;;;20.60;61.80;;;;;;4959630;28;20042;-80
2021/07/31 03:38:24;;;;;;;1.75;1.23;;;20.60;61.80;;;;;;4960733;28;20026;-81
2021/07/31 03:40:52;;;;;;;3.05;1.75;;;20.60;61.80;;;;;;4960163;28;20486;-80
2021/07/31 03:43:21;;;;;;;1.92;1.38;;;20.60;61.80;;;;;;4959337;28;20062;-80
2021/07/31 03:45:47;;;;;;;2.40;1.50;;;20.60;61.90;;;;;;4976422;28;20440;-79
2021/07/31 03:48:16;;;;;;;3.53;1.60;;;20.60;61.90;;;;;;4975055;28;20042;-79
2021/07/31 03:50:41;;;;;;;2.60;1.52;;;20.50;61.90;;;;;;4975783;28;20053;-81
2021/07/31 03:53:10;;;;;;;2.08;1.30;;;20.50;62.00;;;;;;4975766;28;20034;-78
2021/07/31 03:55:39;;;;;;;2.35;1.50;;;20.50;62.00;;;;;;4975708;28;20031;-79
2021/07/31 03:58:05;;;;;;;2.08;1.20;;;20.50;62.00;;;;;;4959540;28;20122;-79
2021/07/31 04:00:32;;;;;;;2.08;1.55;;;20.50;62.10;;;;;;4959491;28;20035;-79
2021/07/31 04:03:03;;;;;;;1.55;1.40;;;20.50;62.10;;;;;;4960958;28;20061;-80
2021/07/31 04:05:29;;;;;;;2.90;1.50;;;20.50;62.10;;;;;;4959300;28;20469;-81
2021/07/31 04:08:14;;;;;;;2.97;1.70;;;20.50;62.20;;;;;;4961800;28;20046;-79
2021/07/31 04:11:02;;;;;;;2.60;1.58;;;20.50;62.20;;;;;;4975735;28;20050;-81
2021/07/31 04:14:06;;;;;;;2.17;1.52;;;20.50;62.20;;;;;;4917217;29;20405;-82
2021/07/31 04:16:58;;;;;;;2.70;1.63;;;20.50;62.30;;;;;;4915149;29;20033;-83
2021/07/31 04:19:24;;;;;;;2.22;1.50;;;20.50;62.40;;;;;;4938330;28;20069;-82
2021/07/31 04:21:53;;;;;;;2.33;1.40;;;20.40;62.40;;;;;;4959373;28;20019;-82
2021/07/31 04:24:20;;;;;;;2.60;1.50;;;20.40;62.50;;;;;;4958781;28;20125;-81
2021/07/31 04:26:46;;;;;;;1.70;1.30;;;20.40;62.50;;;;;;4974983;28;20035;-81
2021/07/31 04:29:12;;;;;;;3.22;1.83;;;20.40;62.50;;;;;;4974755;28;20034;-81
2021/07/31 04:31:38;;;;;;;2.70;1.70;;;20.40;62.60;;;;;;4958626;28;20066;-81
2021/07/31 04:34:03;;;;;;;2.10;1.60;;;20.40;62.50;;;;;;4974711;28;20034;-81
2021/07/31 04:36:31;;;;;;;3.40;1.80;;;20.40;62.60;;;;;;4974822;28;20030;-81
2021/07/31 04:38:57;;;;;;;1.98;1.52;;;20.40;62.70;;;;;;4959166;28;20106;-81
2021/07/31 04:41:23;;;;;;;2.38;1.50;;;20.40;62.70;;;;;;4958973;28;20035;-81
2021/07/31 04:43:49;;;;;;;2.13;1.45;;;20.40;62.70;;;;;;4975866;28;20377;-81
2021/07/31 04:46:15;;;;;;;2.47;1.60;;;20.30;62.70;;;;;;4958440;28;20118;-82
2021/07/31 04:48:40;;;;;;;2.95;1.70;;;20.40;62.80;;;;;;4974421;28;20046;-82
2021/07/31 04:51:08;;;;;;;1.67;1.42;;;20.30;62.80;;;;;;4958491;28;20078;-81
2021/07/31 04:53:35;;;;;;;2.38;1.52;;;20.30;62.90;;;;;;4958282;28;20038;-81
2021/07/31 04:56:01;;;;;;;2.45;1.63;;;20.30;62.90;;;;;;4942596;28;20038;-81
2021/07/31 04:58:26;;;;;;;2.35;1.55;;;20.30;62.90;;;;;;4958196;28;20039;-82
2021/07/31 05:00:55;;;;;;;3.25;1.63;;;20.30;62.90;;;;;;4973575;28;20440;-78
2021/07/31 05:03:21;;;;;;;1.73;1.40;;;20.30;63.00;;;;;;4974980;28;20023;-82
2021/07/31 05:05:47;;;;;;;1.85;1.40;;;20.30;63.00;;;;;;4974391;28;20038;-81
2021/07/31 05:08:14;;;;;;;1.48;1.20;;;20.30;63.00;;;;;;4974279;28;20038;-83
2021/07/31 05:10:41;;;;;;;1.40;1.30;;;20.30;63.00;;;;;;4974734;28;20083;-82
2021/07/31 05:13:08;;;;;;;1.67;1.40;;;20.30;63.10;;;;;;4958860;28;20375;-82
2021/07/31 05:15:38;;;;;;;1.65;1.25;;;20.30;63.00;;;;;;4958046;28;20193;-81
2021/07/31 05:18:05;;;;;;;1.67;1.48;;;20.20;63.10;;;;;;4973860;28;20027;-81
2021/07/31 05:20:33;;;;;;;1.88;1.40;;;20.20;63.10;;;;;;4957998;28;20387;-82
2021/07/31 05:23:00;;;;;;;2.70;1.55;;;20.20;63.10;;;;;;4957901;28;20031;-81
2021/07/31 05:25:26;;;;;;;2.00;1.42;;;20.20;63.20;;;;;;4957789;28;20382;-81
2021/07/31 05:27:52;;;;;;;2.53;1.50;;;20.20;63.10;;;;;;4958552;28;20088;-81
2021/07/31 05:30:18;;;;;;;2.13;1.20;;;20.20;63.20;;;;;;4957780;28;20050;-81
2021/07/31 05:32:43;;;;;;;1.85;1.30;;;20.20;63.20;;;;;;4957960;28;20118;-81
2021/07/31 05:35:10;;;;;;;2.15;1.30;;;20.10;63.20;;;;;;4957997;28;20101;-82
2021/07/31 05:37:35;;;;;;;1.48;1.10;;;20.10;63.20;;;;;;4957902;28;20431;-81
2021/07/31 05:40:02;;;;;;;1.45;1.35;;;20.20;63.30;;;;;;4973931;28;20027;-81
2021/07/31 05:42:28;;;;;;;2.53;1.38;;;20.10;63.30;;;;;;4957352;28;20054;-81
2021/07/31 05:44:59;;;;;;;1.70;1.40;;;20.10;63.30;;;;;;4973545;28;20510;-82
2021/07/31 05:47:27;;;;;;;2.28;1.20;;;20.10;63.40;;;;;;4973678;28;20208;-81
2021/07/31 05:49:58;;;;;;;1.58;1.23;;;20.10;63.40;;;;;;4957383;28;20130;-81
2021/07/31 05:52:26;;;;;;;1.73;1.50;;;20.10;63.40;;;;;;4973843;28;20035;-80
2021/07/31 05:54:55;;;;;;;1.48;1.30;;;20.10;63.40;;;;;;4941810;28;20054;-81
2021/07/31 05:57:21;;;;;;;2.10;1.20;;;20.10;63.50;;;;;;4957481;28;20035;-81
2021/07/31 05:59:47;;;;;;;2.78;1.50;;;20.10;63.40;;;;;;4973419;28;20045;-80
2021/07/31 06:02:13;;;;;;;1.35;1.23;;;20.10;63.40;;;;;;4957549;28;20428;-82
2021/07/31 06:04:39;;;;;;;1.98;1.30;;;20.10;63.50;;;;;;4957589;28;20392;-81
2021/07/31 06:07:06;;;;;;;2.13;1.38;;;20.10;63.60;;;;;;4957233;28;20030;-80
2021/07/31 06:09:37;;;;;;;1.48;1.23;;;20.10;63.60;;;;;;4957291;28;20439;-80
2021/07/31 06:12:04;;;;;;;2.05;1.48;;;20.10;63.70;;;;;;4976304;28;20034;-81
2021/07/31 06:14:34;;;;;;;1.58;1.30;;;20.00;63.60;;;;;;4961566;28;20030;-80
2021/07/31 06:17:00;;;;;;;1.85;1.30;;;20.10;63.70;;;;;;4961172;28;20065;-81
2021/07/31 06:19:28;;;;;;;1.75;1.30;;;20.10;63.70;;;;;;4961037;28;20067;-81
2021/07/31 06:21:54;;;;;;;2.05;1.50;;;20.00;63.70;;;;;;4960993;28;20034;-81
2021/07/31 06:24:20;;;;;;;1.20;1.10;;;20.10;63.70;;;;;;4961817;28;20027;-81
2021/07/31 06:26:45;;;;;;;2.20;1.50;;;20.00;63.70;;;;;;4977140;28;20035;-81
2021/07/31 06:29:11;;;;;;;2.25;1.50;;;20.00;63.70;;;;;;4960933;28;20045;-82
2021/07/31 06:31:37;;;;;;;1.83;1.35;;;20.00;63.80;;;;;;4961835;28;20082;-82
2021/07/31 06:34:03;;;;;;;1.30;1.20;;;20.00;63.80;;;;;;4961178;28;20483;-82
2021/07/31 06:36:29;;;;;;;1.38;1.25;;;20.00;63.90;;;;;;4963156;28;20035;-81
2021/07/31 06:38:54;;;;;;;1.30;1.17;;;20.00;63.90;;;;;;4962169;28;20023;-81
2021/07/31 06:41:20;;;;;;;2.47;1.58;;;20.00;63.90;;;;;;4982011;28;20038;-82
2021/07/31 06:43:46;;;;;;;1.67;1.40;;;20.00;63.90;;;;;;4984949;28;20498;-83
2021/07/31 06:46:13;;;;;;;1.75;1.30;;;20.00;63.90;;;;;;4964338;28;20038;-83
2021/07/31 06:48:39;;;;;;;2.00;1.50;;;20.00;64.00;;;;;;4978487;28;20459;-82
2021/07/31 06:51:06;;;;;;;1.85;1.48;;;20.10;64.10;;;;;;4979540;28;20051;-84
2021/07/31 06:53:32;;;;;;;2.13;1.40;;;20.00;64.70;;;;;;4961733;28;20101;-86
2021/07/31 06:55:58;;;;;;;1.70;1.50;;;20.10;64.10;;;;;;4977769;28;20034;-88
2021/07/31 06:58:24;;;;;;;2.10;1.50;;;20.00;64.00;;;;;;4961837;28;20030;-86
2021/07/31 07:00:50;;;;;;;1.50;1.17;;;20.00;64.00;;;;;;4961159;28;20402;-85
2021/07/31 07:03:16;;;;;;;1.92;1.50;;;20.10;64.10;;;;;;4977306;28;20035;-84
2021/07/31 07:05:42;;;;;;;1.50;1.40;;;20.00;64.10;;;;;;4961249;28;20069;-85
2021/07/31 07:08:07;;;;;;;2.15;1.33;;;20.00;64.10;;;;;;4945485;28;20030;-85
2021/07/31 07:10:33;;;;;;;1.77;1.38;;;20.00;64.10;;;;;;4945146;28;20364;-85
2021/07/31 07:12:59;;;;;;;2.67;1.48;;;20.00;64.10;;;;;;4962476;28;20034;-86
2021/07/31 07:15:28;;;;;;;1.83;1.48;;;20.10;64.10;;;;;;4962539;28;20030;-87
2021/07/31 07:17:58;;;;;;;2.10;1.33;;;20.00;64.10;;;;;;4976740;28;20506;-83
2021/07/31 07:20:25;;;;;;;2.22;1.48;;;20.00;64.20;;;;;;4960814;28;20037;-83
2021/07/31 07:22:52;;;;;;;1.83;1.40;;;20.00;64.20;;;;;;4960239;28;20074;-82
2021/07/31 07:25:18;;;;;;;2.40;1.48;;;20.10;64.20;;;;;;4977551;28;20031;-84
2021/07/31 07:27:44;;;;;;;1.67;1.33;;;20.10;64.20;;;;;;4976551;28;20054;-84
2021/07/31 07:30:11;;;;;;;2.30;1.60;;;20.00;64.10;;;;;;4960198;28;20038;-83
2021/07/31 07:32:37;;;;;;;1.85;1.40;;;20.10;64.30;;;;;;4960124;28;20122;-80
2021/07/31 07:35:05;;;;;;;1.80;1.50;;;20.00;64.20;;;;;;4960287;28;20459;-80
2021/07/31 07:37:30;;;;;;;1.40;1.30;;;20.10;64.30;;;;;;4977040;28;20025;-82
2021/07/31 07:39:58;;;;;;;1.77;1.60;;;20.00;64.60;;;;;;4975940;28;20118;-80
2021/07/31 07:42:26;;;;;;;1.58;1.33;;;20.00;64.20;;;;;;4959424;28;20055;-81
2021/07/31 07:44:52;;;;;;;2.30;1.52;;;20.00;64.20;;;;;;4959894;28;20031;-81
2021/07/31 07:47:18;;;;;;;1.35;1.20;;;20.10;64.30;;;;;;4959733;28;20471;-80
2021/07/31 07:49:44;;;;;;;1.92;1.40;;;20.00;64.20;;;;;;4959442;28;20075;-80
2021/07/31 07:52:09;;;;;;;1.75;1.42;;;20.00;64.20;;;;;;4959674;28;20027;-80
2021/07/31 07:54:35;;;;;;;3.03;1.70;;;20.10;64.30;;;;;;4975919;28;20093;-78
2021/07/31 07:57:05;;;;;;;3.03;1.60;;;20.00;64.30;;;;;;4943596;28;20089;-80
2021/07/31 07:59:31;;;;;;;1.92;1.42;;;20.00;64.40;;;;;;4944161;28;20035;-79
2021/07/31 08:01:57;;;;;;;2.10;1.55;;;20.00;64.40;;;;;;4959521;28;20117;-81
2021/07/31 08:04:22;;;;;;;1.77;1.48;;;20.00;64.30;;;;;;4959285;28;20137;-81
2021/07/31 08:06:48;;;;;;;2.78;1.45;;;20.10;64.40;;;;;;4975345;28;20468;-80
2021/07/31 08:09:14;;;;;;;1.98;1.42;;;20.00;64.40;;;;;;4943859;28;20059;-79
2021/07/31 08:11:43;;;;;;;1.77;1.63;;;20.00;64.40;;;;;;4976102;28;20035;-80
2021/07/31 08:14:10;;;;;;;2.17;1.58;;;20.00;64.50;;;;;;4959212;28;20027;-80
2021/07/31 08:16:36;;;;;;;2.15;1.70;;;20.00;64.40;;;;;;4959326;28;20034;-87
2021/07/31 08:19:03;;;;;;;1.83;1.50;;;20.00;65.10;;;;;;4959060;28;20045;-83
2021/07/31 08:21:30;;;;;;;2.00;1.55;;;20.10;64.50;;;;;;4959320;28;20058;-83
2021/07/31 08:23:56;;;;;;;2.65;1.65;;;20.00;64.50;;;;;;4958717;28;20122;-83
2021/07/31 08:26:22;;;;;;;1.98;1.75;;;20.10;64.60;;;;;;4975295;28;20023;-83
2021/07/31 08:28:50;;;;;;;3.10;1.80;;;20.10;64.60;;;;;;4959008;28;20485;-83
2021/07/31 08:31:16;;;;;;;2.00;1.67;;;20.10;64.60;;;;;;4975077;28;20046;-83
2021/07/31 08:33:42;;;;;;;2.42;1.63;;;20.10;64.60;;;;;;4959019;28;20519;-83
2021/07/31 08:36:09;;;;;;;2.45;1.70;;;20.00;64.60;;;;;;4958537;28;20035;-80
2021/07/31 08:38:35;;;;;;;2.50;1.75;;;20.10;64.70;;;;;;4958885;28;20023;-82
2021/07/31 08:41:01;;;;;;;2.05;1.70;;;20.10;64.70;;;;;;4958671;28;20031;-82
2021/07/31 08:43:28;;;;;;;2.88;1.95;;;20.10;64.80;;;;;;4958403;28;20082;-82
2021/07/31 08:45:59;;;;;;;2.30;1.67;;;20.10;64.80;;;;;;4958910;28;20038;-82
2021/07/31 08:48:27;;;;;;;2.25;1.83;;;20.10;64.90;;;;;;4958837;28;20089;-83
2021/07/31 08:50:57;;;;;;;1.80;1.65;;;20.10;64.90;;;;;;4958742;28;20035;-81
2021/07/31 08:53:28;;;;;;;1.67;1.58;;;20.20;65.00;;;;;;4958734;28;20169;-82
2021/07/31 08:56:12;;;;;;;2.55;1.80;;;20.20;64.90;;;;;;5074707;27;1370622;-81
2021/07/31 08:58:42;;;;;;;2.50;1.92;;;20.20;65.10;;;;;;5088685;28;20024;-81
2021/07/31 09:01:08;;;;;;;2.45;1.73;;;20.30;65.10;;;;;;5079942;28;20357;-81
2021/07/31 09:03:48;;;;;;;2.50;1.85;;;20.30;65.00;;;;;;5063417;28;20020;-80
2021/07/31 09:06:30;;;;;;;2.13;1.70;;;20.30;65.20;;;;;;5080316;28;20032;-80
2021/07/31 09:08:57;;;;;;;2.53;1.75;;;20.30;65.20;;;;;;5082929;28;20032;-84
2021/07/31 09:11:25;;;;;;;2.13;1.83;;;20.30;65.00;;;;;;5100283;28;20103;-82
2021/07/31 09:14:14;;;;;;;3.50;1.83;;;20.40;65.10;;;;;;5076052;28;20024;-82
2021/07/31 09:16:41;;;;;;;2.40;1.48;;;20.40;65.20;;;;;;5047721;28;20106;-83
2021/07/31 09:19:09;;;;;;;2.65;1.70;;;20.40;65.00;;;;;;5085839;28;20016;-82
2021/07/31 09:21:36;;;;;;;1.83;1.65;;;20.40;65.10;;;;;;5065139;28;20135;-84
2021/07/31 09:24:12;;;;;;;2.60;1.55;;;20.40;65.10;;;;;;5067458;28;20138;-81
2021/07/31 09:26:45;;;;;;;1.55;1.45;;;20.40;65.10;;;;;;5078201;28;20055;-81
2021/07/31 09:29:12;;;;;;;2.22;1.75;;;20.40;65.00;;;;;;5082592;28;20119;-82
2021/07/31 09:31:44;;;;;;;1.83;1.63;;;20.40;65.10;;;;;;5065982;28;20474;-81
2021/07/31 09:34:11;;;;;;;1.70;1.50;;;20.40;65.10;;;;;;5090574;28;20081;-80
2021/07/31 09:36:39;;;;;;;2.15;1.65;;;20.40;65.10;;;;;;5074090;28;20388;-81
2021/07/31 09:39:07;;;;;;;2.05;1.48;;;20.40;65.10;;;;;;5108768;28;20023;-81
2021/07/31 09:41:37;;;;;;;2.00;1.65;;;20.40;65.10;;;;;;5082237;28;20046;-80
2021/07/31 09:44:08;;;;;;;2.50;1.67;;;20.40;65.10;;;;;;5100276;28;20039;-80
2021/07/31 09:46:49;;;;;;;1.92;1.55;;;20.40;65.10;;;;;;5070439;28;20077;-80
2021/07/31 09:49:20;;;;;;;2.33;1.60;;;20.40;65.20;;;;;;5087316;28;20908;-80
2021/07/31 09:51:48;;;;;;;2.00;1.80;;;20.40;65.10;;;;;;5095604;28;20038;-80
2021/07/31 09:54:17;;;;;;;2.45;1.50;;;20.50;65.20;;;;;;5090152;28;20154;-80
2021/07/31 09:56:48;;;;;;;3.08;2.00;;;20.40;65.10;;;;;;5108847;28;20117;-80
2021/07/31 09:59:19;;;;;;;2.20;1.38;;;20.40;65.10;;;;;;5090242;28;20118;-80
2021/07/31 10:01:54;;;;;;;1.83;1.55;;;20.50;65.20;;;;;;5085020;28;20047;-80
2021/07/31 10:04:20;;;;;;;2.17;1.58;;;20.40;65.20;;;;;;5079925;28;20064;-80
2021/07/31 10:06:47;;;;;;;1.30;1.20;;;20.50;65.20;;;;;;5072993;28;20051;-80
2021/07/31 10:09:13;;;;;;;1.88;1.38;;;20.50;65.20;;;;;;5060393;28;20028;-80
2021/07/31 10:11:40;;;;;;;2.63;1.63;;;20.50;65.30;;;;;;5094728;28;20032;-80
2021/07/31 10:14:08;;;;;;;1.40;1.20;;;20.50;65.30;;;;;;5094763;28;20060;-81
2021/07/31 10:16:43;;;;;;;2.53;1.60;;;20.50;65.30;;;;;;5094727;28;20099;-81
2021/07/31 10:19:10;;;;;;;1.95;1.45;;;20.50;66.00;;;;;;5076533;28;20456;-81
2021/07/31 10:21:46;;;;;;;1.45;1.33;;;20.50;65.30;;;;;;5084821;28;20024;-81
2021/07/31 10:24:12;;;;;;;1.73;1.60;;;20.50;65.40;;;;;;5054098;28;20380;-81
2021/07/31 10:26:38;;;;;;;1.92;1.40;;;20.50;65.30;;;;;;5057550;28;20046;-82
2021/07/31 10:29:25;;;;;;;1.67;1.50;;;20.60;65.40;;;;;;5077007;28;20047;-82
2021/07/31 10:31:52;;;;;;;1.85;1.40;;;20.60;65.60;;;;;;5076909;28;20035;-81
2021/07/31 10:34:42;;;;;;;1.45;1.33;;;20.60;65.40;;;;;;5071176;28;20373;-80
2021/07/31 10:37:34;;;;;;;2.78;1.67;;;20.60;65.60;;;;;;5056036;28;20028;-82
2021/07/31 10:40:06;;;;;;;1.83;1.40;;;20.60;65.60;;;;;;5053679;28;20037;-82
2021/07/31 10:42:47;;;;;;;1.35;1.25;;;20.60;65.50;;;;;;5059511;28;20483;-81
2021/07/31 10:45:16;;;;;;;1.70;1.30;;;20.60;65.60;;;;;;5072779;28;20388;-80
2021/07/31 10:47:42;;;;;;;2.58;1.63;;;20.60;65.50;;;;;;5082765;28;20008;-80
2021/07/31 10:50:26;;;;;;;1.90;1.50;;;20.70;65.60;;;;;;5065840;28;20034;-81
2021/07/31 10:52:57;;;;;;;3.03;1.73;;;20.60;65.70;;;;;;5050968;28;20031;-81
2021/07/31 10:55:47;;;;;;;1.70;1.60;;;20.70;65.70;;;;;;5058640;28;20070;-80
2021/07/31 10:58:17;;;;;;;1.30;1.20;;;20.70;65.70;;;;;;5065960;28;20115;-80
2021/07/31 11:00:50;;;;;;;2.00;1.40;;;20.70;65.70;;;;;;5075777;28;20082;-81
2021/07/31 11:03:22;;;;;;;1.40;1.30;;;20.70;65.70;;;;;;5074488;28;20036;-80
2021/07/31 11:05:47;;;;;;;2.63;1.60;;;20.70;65.60;;;;;;5052413;28;20035;-81
2021/07/31 11:08:13;;;;;;;2.03;1.45;;;20.70;65.70;;;;;;5067148;28;20442;-81
2021/07/31 11:10:43;;;;;;;1.33;1.20;;;20.70;65.70;;;;;;5090766;28;20540;-80
2021/07/31 11:13:32;;;;;;;1.40;1.30;;;20.70;65.70;;;;;;5063855;28;20082;-80
2021/07/31 11:16:06;;;;;;;3.05;1.70;;;20.80;65.80;;;;;;5053722;28;20036;-80
2021/07/31 11:18:35;;;;;;;1.45;1.35;;;20.80;65.80;;;;;;5065403;28;20082;-80
2021/07/31 11:21:08;;;;;;;1.00;0.98;;;20.80;65.80;;;;;;5082057;28;20078;-80
2021/07/31 11:23:39;;;;;;;2.25;1.33;;;20.80;65.80;;;;;;5072865;28;20355;-80
2021/07/31 11:26:05;;;;;;;1.45;1.23;;;20.80;65.80;;;;;;5058116;28;20524;-80
2021/07/31 11:28:31;;;;;;;2.10;1.30;;;20.80;65.80;;;;;;5080757;28;20100;-80
2021/07/31 11:30:57;;;;;;;1.70;1.20;;;20.80;65.80;;;;;;5057901;28;20038;-80
2021/07/31 11:33:24;;;;;;;1.60;1.40;;;20.80;65.80;;;;;;5044039;28;20099;-80
2021/07/31 11:35:55;;;;;;;1.38;0.93;;;20.80;65.80;;;;;;5064586;28;20063;-80
2021/07/31 11:38:38;;;;;;;1.67;1.20;;;20.90;65.90;;;;;;5084316;28;20028;-80
2021/07/31 11:41:14;;;;;;;0.93;0.93;;;20.80;65.90;;;;;;5064151;28;20024;-78
2021/07/31 11:43:56;;;;;;;1.10;1.02;;;20.80;65.90;;;;;;5055033;28;20059;-79
2021/07/31 11:46:29;;;;;;;1.40;1.20;;;20.90;65.90;;;;;;5038754;28;20036;-80
2021/07/31 11:48:57;;;;;;;1.23;1.10;;;20.80;65.80;;;;;;5046650;28;20576;-80
2021/07/31 11:51:24;;;;;;;1.40;1.17;;;20.80;65.80;;;;;;5046264;28;20024;-80
2021/07/31 11:53:50;;;;;;;1.27;1.17;;;20.80;66.40;;;;;;5063082;28;20028;-80
2021/07/31 11:56:21;;;;;;;1.35;1.08;;;20.90;65.80;;;;;;5064248;28;20388;-80
2021/07/31 11:58:49;;;;;;;1.65;1.10;;;20.90;65.90;;;;;;5066141;28;20024;-80
2021/07/31 12:01:16;;;;;;;1.20;1.10;;;20.90;65.80;;;;;;5049673;28;20021;-80
2021/07/31 12:03:47;;;;;;;1.30;1.20;;;20.90;65.80;;;;;;5074241;28;20522;-79
2021/07/31 12:06:39;;;;;;;1.30;1.20;;;20.90;65.90;;;;;;5065806;28;20427;-80
2021/07/31 12:09:07;;;;;;;1.30;1.20;;;20.90;66.00;;;;;;5083172;28;20052;-80
2021/07/31 12:11:38;;;;;;;1.85;1.20;;;20.90;65.80;;;;;;5064489;28;20020;-80
2021/07/31 12:14:31;;;;;;;1.77;1.48;;;20.90;65.90;;;;;;5066206;28;20024;-80
2021/07/31 12:17:21;;;;;;;1.70;1.40;;;20.90;66.00;;;;;;5063086;28;20028;-80
2021/07/31 12:19:49;;;;;;;1.30;1.20;;;20.90;66.00;;;;;;5046275;28;20033;-79
2021/07/31 12:22:20;;;;;;;1.33;1.23;;;20.90;65.90;;;;;;5044073;28;20554;-81
2021/07/31 12:25:07;;;;;;;1.27;1.10;;;20.90;65.90;;;;;;5072545;28;20396;-80
2021/07/31 12:27:49;;;;;;;1.67;1.52;;;20.90;66.10;;;;;;5061629;28;20032;-79
2021/07/31 12:30:26;;;;;;;1.90;1.30;;;20.90;66.00;;;;;;5062206;28;20111;-80
2021/07/31 12:33:13;;;;;;;1.70;1.40;;;21.00;65.90;;;;;;5062746;28;20037;-79
2021/07/31 12:35:43;;;;;;;1.85;1.30;;;21.00;65.90;;;;;;5061581;28;20519;-80
2021/07/31 12:38:21;;;;;;;2.30;1.42;;;21.00;65.90;;;;;;5057476;28;20028;-80
2021/07/31 12:40:54;;;;;;;1.50;1.20;;;21.00;66.00;;;;;;5065753;28;20369;-80
2021/07/31 12:43:21;;;;;;;2.47;1.48;;;21.00;66.00;;;;;;5074750;28;20089;-80
2021/07/31 12:45:47;;;;;;;2.22;1.38;;;21.10;66.00;;;;;;5054433;28;20025;-80
2021/07/31 12:48:15;;;;;;;3.05;1.60;;;21.10;66.00;;;;;;5047994;28;20488;-80
2021/07/31 12:50:44;;;;;;;2.05;1.48;;;21.10;66.00;;;;;;5092250;28;20149;-79
2021/07/31 12:53:11;;;;;;;2.83;1.60;;;21.10;66.00;;;;;;5074416;28;20024;-79
2021/07/31 12:55:37;;;;;;;1.90;1.70;;;21.10;65.90;;;;;;5073407;28;20052;-79
2021/07/31 12:58:03;;;;;;;1.80;1.48;;;21.10;65.90;;;;;;5053818;28;20392;-79